createdAt,value
2018-05-24T00:01:02.331Z,47.95
2018-05-24T00:02:06.861Z,47.79
2018-05-24T00:03:10.947Z,47.74
2018-05-24T00:04:15.667Z,47.90
2018-05-24T00:05:21.256Z,47.95
2018-05-24T00:06:25.309Z,48.17
2018-05-24T00:07:29.360Z,48.21
2018-05-24T00:08:33.419Z,48.52
2018-05-24T00:09:37.521Z,48.54
2018-05-24T00:10:41.590Z,48.24
2018-05-24T00:11:46.088Z,48.13
2018-05-24T00:12:50.199Z,48.28
2018-05-24T00:13:54.401Z,48.52
2018-05-24T00:14:58.583Z,48.68
2018-05-24T00:16:03.103Z,48.88
2018-05-24T00:17:07.328Z,49.11
2018-05-24T00:18:11.401Z,49.11
2018-05-24T00:19:15.547Z,49.20
2018-05-24T00:20:19.603Z,49.27
2018-05-24T00:21:23.665Z,49.28
2018-05-24T00:22:27.791Z,49.27
2018-05-24T00:23:31.861Z,49.13
2018-05-24T00:24:36.409Z,49.07
2018-05-24T00:25:40.481Z,49.16
2018-05-24T00:26:44.556Z,49.23
2018-05-24T00:27:48.627Z,49.24
2018-05-24T00:28:52.779Z,49.50
2018-05-24T00:29:57.021Z,49.44
2018-05-24T00:31:02.080Z,49.59
2018-05-24T00:32:06.199Z,49.57
2018-05-24T00:33:11.024Z,49.83
2018-05-24T00:34:15.087Z,50.03
2018-05-24T00:35:19.227Z,50.20
2018-05-24T00:36:23.281Z,50.41
2018-05-24T00:37:27.846Z,50.58
2018-05-24T00:38:31.913Z,50.80
2018-05-24T00:39:35.990Z,50.81
2018-05-24T00:40:40.126Z,50.61
2018-05-24T00:41:44.208Z,50.46
2018-05-24T00:42:48.262Z,50.56
2018-05-24T00:43:52.994Z,50.72
2018-05-24T00:44:57.472Z,50.83
2018-05-24T00:46:02.196Z,50.91
2018-05-24T00:48:19.034Z,51.18
2018-05-24T00:49:23.513Z,51.25
2018-05-24T00:50:28.078Z,51.26
2018-05-24T00:51:32.451Z,51.42
2018-05-24T00:52:36.722Z,51.47
2018-05-24T00:53:40.793Z,51.34
2018-05-24T00:54:45.288Z,51.35
2018-05-24T00:55:49.416Z,51.32
2018-05-24T00:56:53.952Z,51.19
2018-05-24T00:57:58.026Z,51.23
2018-05-24T00:59:02.770Z,51.18
2018-05-24T01:00:07.702Z,51.24
2018-05-24T01:01:12.138Z,51.47
2018-05-24T01:02:17.088Z,51.57
2018-05-24T01:03:21.660Z,51.54
2018-05-24T01:04:25.734Z,51.65
2018-05-24T01:05:29.951Z,51.69
2018-05-24T01:06:34.058Z,51.90
2018-05-24T01:07:38.128Z,52.01
2018-05-24T01:08:42.564Z,52.17
2018-05-24T01:09:46.688Z,52.19
2018-05-24T01:10:50.845Z,52.17
2018-05-24T01:11:54.910Z,51.92
2018-05-24T01:12:59.073Z,51.93
2018-05-24T01:14:03.594Z,52.10
2018-05-24T01:15:08.660Z,52.14
2018-05-24T01:17:50.413Z,51.99
2018-05-24T01:18:54.498Z,51.85
2018-05-24T01:19:58.689Z,52.10
2018-05-24T01:21:02.881Z,52.35
2018-05-24T01:22:08.239Z,52.37
2018-05-24T01:23:13.063Z,52.49
2018-05-24T01:24:19.187Z,52.63
2018-05-24T01:27:22.478Z,52.78
2018-05-24T01:28:27.527Z,52.83
2018-05-24T01:29:31.846Z,52.98
2018-05-24T01:30:36.428Z,53.09
2018-05-24T01:31:40.601Z,53.12
2018-05-24T01:32:45.066Z,53.29
2018-05-24T01:33:49.191Z,53.17
2018-05-24T01:34:53.324Z,53.31
2018-05-24T01:35:57.428Z,53.30
2018-05-24T01:38:09.314Z,53.23
2018-05-24T01:39:13.462Z,53.34
2018-05-24T01:40:18.768Z,53.38
2018-05-24T01:41:22.862Z,53.45
2018-05-24T01:42:26.951Z,53.63
2018-05-24T01:43:31.137Z,53.79
2018-05-24T01:44:35.530Z,53.77
2018-05-24T01:45:40.040Z,53.88
2018-05-24T01:46:44.443Z,53.93
2018-05-24T01:47:48.755Z,54.10
2018-05-24T01:48:53.180Z,53.89
2018-05-24T01:49:57.324Z,53.79
2018-05-24T01:51:01.764Z,53.77
2018-05-24T01:52:05.956Z,53.63
2018-05-24T01:53:10.102Z,53.39
2018-05-24T01:54:14.217Z,53.26
2018-05-24T01:55:18.320Z,53.35
2018-05-24T01:56:22.495Z,53.39
2018-05-24T01:57:27.576Z,53.45
2018-05-24T01:58:31.732Z,53.54
2018-05-24T01:59:35.836Z,53.76
2018-05-24T02:00:40.388Z,53.94
2018-05-24T02:01:44.510Z,53.95
2018-05-24T02:02:49.089Z,53.92
2018-05-24T02:03:53.237Z,53.83
2018-05-24T02:04:57.345Z,53.83
2018-05-24T02:06:01.459Z,53.81
2018-05-24T02:07:05.655Z,53.69
2018-05-24T02:08:09.818Z,53.76
2018-05-24T02:09:14.231Z,53.65
2018-05-24T02:10:18.395Z,53.82
2018-05-24T02:11:23.037Z,53.85
2018-05-24T02:12:27.262Z,54.03
2018-05-24T02:13:31.408Z,54.06
2018-05-24T02:14:35.504Z,54.19
2018-05-24T02:15:40.268Z,54.13
2018-05-24T02:16:44.373Z,54.33
2018-05-24T02:17:48.580Z,54.25
2018-05-24T02:18:52.675Z,54.40
2018-05-24T02:19:56.920Z,54.33
2018-05-24T02:21:01.086Z,54.22
2018-05-24T02:22:05.631Z,54.40
2018-05-24T02:23:09.765Z,54.40
2018-05-24T02:24:13.915Z,54.54
2018-05-24T02:25:18.134Z,54.37
2018-05-24T02:26:22.942Z,54.48
2018-05-24T02:27:27.152Z,54.52
2018-05-24T02:28:32.543Z,54.45
2018-05-24T02:29:36.662Z,54.58
2018-05-24T02:32:19.881Z,55.00
2018-05-24T02:33:24.817Z,55.09
2018-05-24T02:34:29.870Z,55.10
2018-05-24T02:35:34.264Z,55.23
2018-05-24T02:36:38.382Z,55.17
2018-05-24T02:37:42.462Z,55.40
2018-05-24T02:38:46.634Z,55.60
2018-05-24T02:39:50.750Z,55.70
2018-05-24T02:40:54.882Z,55.63
2018-05-24T02:41:58.998Z,55.56
2018-05-24T02:43:03.088Z,55.57
2018-05-24T02:44:07.224Z,55.56
2018-05-24T02:45:12.524Z,55.60
2018-05-24T02:46:16.588Z,55.87
2018-05-24T02:47:20.710Z,55.91
2018-05-24T02:48:25.330Z,55.92
2018-05-24T02:49:29.502Z,55.79
2018-05-24T02:50:33.602Z,55.88
2018-05-24T02:51:37.736Z,55.85
2018-05-24T02:52:41.821Z,55.76
2018-05-24T02:53:45.916Z,55.61
2018-05-24T02:55:49.157Z,55.70
2018-05-24T02:56:53.279Z,55.53
2018-05-24T02:57:57.404Z,55.56
2018-05-24T02:59:01.538Z,55.55
2018-05-24T03:00:07.564Z,55.37
2018-05-24T03:01:12.398Z,55.47
2018-05-24T03:02:17.114Z,55.49
2018-05-24T03:03:21.200Z,55.56
2018-05-24T03:04:25.466Z,55.73
2018-05-24T03:05:29.564Z,56.02
2018-05-24T03:06:33.656Z,56.13
2018-05-24T03:07:39.005Z,56.10
2018-05-24T03:08:43.545Z,56.08
2018-05-24T03:09:48.027Z,56.13
2018-05-24T03:10:52.565Z,56.18
2018-05-24T03:11:56.668Z,56.02
2018-05-24T03:13:00.751Z,55.88
2018-05-24T03:14:05.177Z,55.75
2018-05-24T03:15:09.775Z,55.91
2018-05-24T03:16:13.910Z,56.00
2018-05-24T03:17:18.008Z,56.21
2018-05-24T03:18:22.866Z,56.20
2018-05-24T03:19:27.028Z,56.22
2018-05-24T03:20:31.362Z,56.08
2018-05-24T03:21:35.494Z,56.09
2018-05-24T03:22:39.624Z,56.06
2018-05-24T03:23:44.119Z,56.18
2018-05-24T03:24:48.258Z,56.14
2018-05-24T03:25:52.370Z,56.15
2018-05-24T03:26:56.470Z,56.26
2018-05-24T03:28:00.644Z,56.19
2018-05-24T03:29:04.744Z,56.11
2018-05-24T03:30:09.201Z,55.94
2018-05-24T03:31:13.541Z,55.90
2018-05-24T03:32:17.985Z,56.09
2018-05-24T03:33:22.084Z,56.06
2018-05-24T03:34:26.198Z,56.13
2018-05-24T03:35:30.992Z,56.12
2018-05-24T03:36:35.106Z,56.27
2018-05-24T03:37:39.266Z,56.19
2018-05-24T03:38:43.700Z,56.17
2018-05-24T03:39:47.812Z,56.34
2018-05-24T03:40:51.952Z,56.27
2018-05-24T03:41:56.092Z,56.04
2018-05-24T03:43:00.246Z,56.00
2018-05-24T03:44:04.381Z,55.87
2018-05-24T03:45:09.222Z,55.76
2018-05-24T03:46:13.542Z,55.69
2018-05-24T03:47:17.722Z,55.35
2018-05-24T03:48:22.064Z,55.51
2018-05-24T03:49:26.169Z,55.72
2018-05-24T03:50:30.647Z,55.52
2018-05-24T03:51:34.752Z,55.55
2018-05-24T03:52:38.835Z,55.32
2018-05-24T03:53:43.020Z,55.41
2018-05-24T03:54:47.128Z,55.24
2018-05-24T03:55:51.280Z,55.19
2018-05-24T03:56:55.693Z,55.38
2018-05-24T03:57:59.825Z,55.16
2018-05-24T03:59:04.056Z,55.09
2018-05-24T04:01:22.681Z,55.00
2018-05-24T04:04:54.857Z,54.44
2018-05-24T04:05:59.152Z,53.72
2018-05-24T04:07:03.533Z,53.72
2018-05-24T04:08:07.695Z,53.65
2018-05-24T04:09:12.210Z,53.46
2018-05-24T04:10:16.293Z,53.22
2018-05-24T04:11:20.496Z,52.96
2018-05-24T04:12:24.652Z,52.89
2018-05-24T04:13:28.756Z,52.86
2018-05-24T04:14:32.929Z,52.69
2018-05-24T04:15:37.125Z,52.71
2018-05-24T04:16:41.219Z,52.92
2018-05-24T04:17:45.411Z,52.90
2018-05-24T04:18:49.547Z,52.82
2018-05-24T04:19:53.652Z,52.47
2018-05-24T04:20:57.752Z,52.54
2018-05-24T04:22:02.312Z,52.12
2018-05-24T04:23:06.511Z,52.35
2018-05-24T04:24:10.606Z,52.27
2018-05-24T04:25:14.849Z,51.76
2018-05-24T04:26:19.664Z,51.92
2018-05-24T04:27:24.310Z,51.62
2018-05-24T04:28:29.365Z,51.28
2018-05-24T04:29:33.462Z,51.19
2018-05-24T04:30:38.068Z,51.03
2018-05-24T04:31:42.181Z,50.77
2018-05-24T04:32:46.264Z,50.79
2018-05-24T04:33:50.565Z,50.53
2018-05-24T04:34:54.985Z,50.44
2018-05-24T04:35:59.179Z,50.16
2018-05-24T04:37:03.320Z,49.83
2018-05-24T04:38:07.486Z,49.78
2018-05-24T04:39:11.598Z,49.64
2018-05-24T04:40:15.685Z,49.86
2018-05-24T04:41:19.868Z,49.59
2018-05-24T04:42:24.163Z,49.65
2018-05-24T04:43:30.541Z,49.63
2018-05-24T04:44:34.677Z,49.17
2018-05-24T04:45:39.107Z,49.07
2018-05-24T04:46:43.303Z,49.25
2018-05-24T04:47:47.739Z,49.42
2018-05-24T04:48:51.888Z,49.21
2018-05-24T04:49:56.067Z,49.12
2018-05-24T04:51:00.191Z,49.19
2018-05-24T04:52:04.295Z,49.49
2018-05-24T04:53:08.436Z,49.37
2018-05-24T04:54:12.873Z,49.55
2018-05-24T04:55:17.017Z,49.35
2018-05-24T04:56:21.133Z,49.29
2018-05-24T04:57:25.260Z,49.28
2018-05-24T04:58:29.652Z,48.85
2018-05-24T04:59:34.851Z,48.87
2018-05-24T05:00:39.579Z,48.36
2018-05-24T05:01:43.827Z,48.44
2018-05-24T05:02:48.034Z,48.37
2018-05-24T05:03:52.164Z,49.25
2018-05-24T05:04:56.263Z,49.96
2018-05-24T05:06:00.573Z,49.00
2018-05-24T05:07:04.770Z,50.49
2018-05-24T05:08:08.928Z,49.16
2018-05-24T05:09:13.197Z,48.68
2018-05-24T05:10:17.371Z,48.74
2018-05-24T05:11:21.475Z,48.52
2018-05-24T05:12:26.112Z,48.08
2018-05-24T05:13:30.311Z,47.54
2018-05-24T05:14:35.053Z,47.35
2018-05-24T05:15:39.844Z,47.41
2018-05-24T05:16:43.965Z,47.81
2018-05-24T05:17:48.108Z,47.08
2018-05-24T05:18:52.557Z,47.30
2018-05-24T05:19:56.670Z,46.97
2018-05-24T05:21:00.856Z,47.17
2018-05-24T05:22:04.976Z,48.98
2018-05-24T05:23:09.195Z,48.70
2018-05-24T05:24:13.371Z,48.60
2018-05-24T05:25:17.899Z,46.63
2018-05-24T05:26:22.008Z,46.57
2018-05-24T05:27:26.206Z,46.14
2018-05-24T05:28:30.529Z,46.39
2018-05-24T05:29:35.596Z,46.37
2018-05-24T05:30:40.092Z,46.43
2018-05-24T05:31:44.164Z,46.49
2018-05-24T05:32:48.309Z,46.93
2018-05-24T05:33:52.451Z,46.36
2018-05-24T05:34:56.551Z,45.81
2018-05-24T05:36:00.743Z,45.28
2018-05-24T05:37:04.956Z,44.74
2018-05-24T05:38:09.498Z,44.90
2018-05-24T05:39:13.556Z,44.77
2018-05-24T05:40:17.742Z,44.35
2018-05-24T05:41:21.889Z,43.99
2018-05-24T05:42:26.112Z,43.73
2018-05-24T05:43:31.050Z,43.64
2018-05-24T05:44:35.758Z,44.08
2018-05-24T05:45:39.870Z,44.27
2018-05-24T05:46:43.987Z,44.13
2018-05-24T05:47:48.182Z,44.13
2018-05-24T05:48:52.342Z,43.72
2018-05-24T05:49:56.497Z,44.06
2018-05-24T05:51:00.886Z,43.77
2018-05-24T05:52:05.103Z,43.68
2018-05-24T05:53:09.190Z,43.99
2018-05-24T05:54:13.392Z,43.78
2018-05-24T05:55:17.617Z,43.95
2018-05-24T05:56:21.700Z,44.09
2018-05-24T05:57:26.132Z,43.97
2018-05-24T05:58:30.413Z,44.06
2018-05-24T05:59:34.503Z,44.47
2018-05-24T06:00:39.940Z,44.45
2018-05-24T06:01:44.068Z,44.33
2018-05-24T06:02:48.536Z,44.78
2018-05-24T06:03:52.710Z,44.28
2018-05-24T06:04:56.920Z,43.90
2018-05-24T06:06:01.056Z,43.46
2018-05-24T06:07:05.237Z,42.92
2018-05-24T06:08:09.360Z,42.83
2018-05-24T06:09:13.484Z,42.97
2018-05-24T06:10:17.614Z,43.01
2018-05-24T06:11:21.813Z,42.25
2018-05-24T06:12:25.928Z,42.33
2018-05-24T06:13:30.040Z,42.35
2018-05-24T06:14:34.124Z,42.73
2018-05-24T06:15:38.526Z,42.85
2018-05-24T06:16:42.692Z,42.81
2018-05-24T06:17:46.836Z,42.75
2018-05-24T06:18:51.028Z,42.81
2018-05-24T06:19:55.190Z,43.06
2018-05-24T06:20:59.355Z,43.47
2018-05-24T06:22:03.560Z,43.43
2018-05-24T06:23:07.652Z,43.41
2018-05-24T06:24:11.909Z,43.61
2018-05-24T06:25:16.334Z,43.15
2018-05-24T06:26:20.575Z,42.88
2018-05-24T06:27:24.721Z,42.04
2018-05-24T06:28:29.028Z,42.04
2018-05-24T06:29:33.864Z,42.31
2018-05-24T06:30:38.244Z,42.39
2018-05-24T06:31:43.028Z,41.93
2018-05-24T06:32:47.146Z,41.15
2018-05-24T06:33:51.264Z,41.76
2018-05-24T06:34:55.364Z,41.81
2018-05-24T06:35:59.587Z,41.79
2018-05-24T06:37:03.742Z,41.20
2018-05-24T06:38:07.890Z,41.07
2018-05-24T06:39:12.381Z,41.35
2018-05-24T06:40:16.520Z,41.81
2018-05-24T06:41:20.670Z,41.73
2018-05-24T06:42:24.996Z,41.12
2018-05-24T06:43:29.123Z,41.74
2018-05-24T06:44:33.238Z,41.46
2018-05-24T06:45:37.777Z,40.40
2018-05-24T06:46:41.962Z,40.42
2018-05-24T06:47:46.131Z,40.23
2018-05-24T06:48:50.364Z,39.55
2018-05-24T06:49:54.464Z,39.77
2018-05-24T06:50:58.637Z,39.81
2018-05-24T06:52:02.841Z,39.42
2018-05-24T06:53:06.962Z,39.58
2018-05-24T06:54:11.086Z,39.72
2018-05-24T06:55:15.245Z,39.96
2018-05-24T06:56:19.380Z,40.26
2018-05-24T06:57:23.484Z,40.26
2018-05-24T06:58:27.615Z,40.58
2018-05-24T06:59:31.885Z,40.38
2018-05-24T07:00:36.611Z,40.42
2018-05-24T07:01:40.818Z,40.75
2018-05-24T07:02:44.937Z,40.51
2018-05-24T07:03:49.055Z,40.59
2018-05-24T07:04:53.276Z,40.37
2018-05-24T07:05:57.903Z,40.03
2018-05-24T07:07:02.105Z,40.38
2018-05-24T07:08:06.222Z,40.77
2018-05-24T07:09:10.414Z,40.65
2018-05-24T07:10:14.534Z,40.14
2018-05-24T07:11:18.892Z,40.54
2018-05-24T07:12:23.040Z,40.22
2018-05-24T07:13:27.261Z,39.74
2018-05-24T07:14:31.397Z,39.65
2018-05-24T07:15:36.743Z,39.19
2018-05-24T07:16:41.730Z,39.33
2018-05-24T07:17:45.976Z,39.09
2018-05-24T07:18:50.399Z,39.02
2018-05-24T07:19:54.492Z,38.55
2018-05-24T07:20:58.617Z,38.45
2018-05-24T07:22:02.830Z,38.57
2018-05-24T07:23:06.980Z,37.65
2018-05-24T07:24:11.111Z,37.72
2018-05-24T07:25:15.536Z,37.19
2018-05-24T07:26:19.720Z,37.42
2018-05-24T07:27:23.833Z,37.91
2018-05-24T07:28:28.194Z,37.44
2018-05-24T07:29:33.100Z,37.16
2018-05-24T07:30:37.454Z,37.30
2018-05-24T07:31:42.838Z,37.47
2018-05-24T07:32:46.999Z,38.34
2018-05-24T07:33:51.140Z,39.00
2018-05-24T07:34:55.264Z,39.67
2018-05-24T07:35:59.356Z,39.40
2018-05-24T07:37:03.532Z,39.46
2018-05-24T07:38:07.648Z,39.88
2018-05-24T07:39:11.792Z,39.82
2018-05-24T07:40:15.900Z,39.84
2018-05-24T07:41:20.084Z,40.05
2018-05-24T07:42:24.248Z,39.90
2018-05-24T07:43:28.436Z,39.18
2018-05-24T07:44:32.880Z,38.65
2018-05-24T07:45:38.642Z,38.23
2018-05-24T07:46:43.501Z,38.54
2018-05-24T07:47:47.672Z,38.27
2018-05-24T07:48:51.824Z,38.40
2018-05-24T07:49:56.280Z,38.54
2018-05-24T07:51:00.465Z,37.72
2018-05-24T07:52:04.618Z,37.69
2018-05-24T07:53:08.802Z,37.04
2018-05-24T07:54:12.930Z,36.68
2018-05-24T07:55:17.034Z,36.67
2018-05-24T07:56:21.432Z,36.58
2018-05-24T07:57:25.626Z,37.21
2018-05-24T07:58:29.782Z,37.94
2018-05-24T07:59:33.964Z,38.18
2018-05-24T08:00:38.411Z,37.91
2018-05-24T08:01:42.582Z,37.28
2018-05-24T08:02:46.841Z,37.13
2018-05-24T08:03:51.052Z,37.72
2018-05-24T08:04:55.203Z,37.71
2018-05-24T08:05:59.342Z,37.36
2018-05-24T08:07:03.532Z,37.15
2018-05-24T08:08:07.726Z,37.53
2018-05-24T08:09:12.160Z,37.81
2018-05-24T08:10:16.287Z,37.24
2018-05-24T08:11:20.461Z,37.06
2018-05-24T08:12:24.650Z,36.56
2018-05-24T08:13:28.782Z,37.08
2018-05-24T08:14:32.949Z,37.04
2018-05-24T08:15:37.696Z,36.73
2018-05-24T08:16:42.128Z,36.51
2018-05-24T08:17:46.362Z,36.44
2018-05-24T08:18:50.541Z,36.16
2018-05-24T08:19:54.645Z,36.03
2018-05-24T08:20:58.754Z,35.91
2018-05-24T08:22:03.352Z,36.02
2018-05-24T08:23:07.467Z,36.18
2018-05-24T08:24:11.610Z,35.73
2018-05-24T08:25:15.718Z,35.08
2018-05-24T08:26:20.060Z,35.04
2018-05-24T08:27:24.234Z,34.80
2018-05-24T08:28:28.388Z,35.25
2018-05-24T08:29:32.622Z,34.91
2018-05-24T08:30:36.789Z,34.98
2018-05-24T08:31:41.391Z,35.36
2018-05-24T08:32:45.542Z,35.99
2018-05-24T08:33:50.250Z,36.00
2018-05-24T08:34:54.775Z,36.00
2018-05-24T08:35:58.966Z,35.66
2018-05-24T08:37:03.232Z,35.53
2018-05-24T08:38:07.440Z,34.94
2018-05-24T08:39:11.835Z,34.91
2018-05-24T08:40:16.001Z,35.17
2018-05-24T08:41:20.238Z,35.63
2018-05-24T08:42:24.364Z,35.19
2018-05-24T08:43:28.519Z,35.24
2018-05-24T08:44:32.689Z,35.55
2018-05-24T08:45:37.416Z,35.41
2018-05-24T08:46:43.104Z,34.14
2018-05-24T08:47:47.216Z,34.10
2018-05-24T08:48:52.269Z,34.14
2018-05-24T08:49:56.428Z,33.87
2018-05-24T08:51:00.696Z,33.98
2018-05-24T08:52:05.148Z,33.89
2018-05-24T08:53:09.255Z,32.83
2018-05-24T08:54:13.378Z,33.38
2018-05-24T08:55:17.481Z,33.16
2018-05-24T08:56:21.693Z,33.34
2018-05-24T08:57:25.847Z,33.04
2018-05-24T08:58:30.037Z,33.00
2018-05-24T08:59:34.158Z,32.96
2018-05-24T09:00:38.768Z,33.35
2018-05-24T09:01:42.869Z,33.59
2018-05-24T09:02:47.159Z,32.83
2018-05-24T09:03:51.436Z,33.03
2018-05-24T09:04:55.535Z,33.38
2018-05-24T09:05:59.630Z,32.86
2018-05-24T09:07:03.832Z,32.87
2018-05-24T09:08:07.951Z,32.77
2018-05-24T09:09:12.318Z,33.42
2018-05-24T09:10:16.780Z,33.15
2018-05-24T09:11:20.952Z,33.70
2018-05-24T09:12:25.154Z,33.43
2018-05-24T09:13:29.270Z,32.79
2018-05-24T09:14:33.369Z,32.47
2018-05-24T09:15:37.847Z,32.81
2018-05-24T09:16:42.269Z,33.35
2018-05-24T09:17:46.374Z,33.08
2018-05-24T09:18:51.090Z,33.02
2018-05-24T09:19:55.796Z,33.33
2018-05-24T09:21:00.048Z,33.15
2018-05-24T09:22:04.182Z,32.43
2018-05-24T09:23:08.709Z,32.52
2018-05-24T09:24:12.849Z,33.12
2018-05-24T09:25:16.988Z,33.41
2018-05-24T09:26:21.141Z,33.48
2018-05-24T09:27:25.334Z,33.47
2018-05-24T09:28:29.440Z,33.44
2018-05-24T09:29:33.567Z,33.01
2018-05-24T09:30:37.995Z,32.62
2018-05-24T09:31:42.834Z,31.99
2018-05-24T09:32:47.968Z,32.33
2018-05-24T09:33:52.785Z,31.84
2018-05-24T09:34:58.095Z,32.42
2018-05-24T09:36:02.214Z,31.53
2018-05-24T09:37:06.390Z,32.49
2018-05-24T09:38:10.518Z,32.24
2018-05-24T09:39:14.743Z,32.73
2018-05-24T09:40:19.203Z,31.80
2018-05-24T09:41:23.395Z,30.96
2018-05-24T09:42:27.524Z,31.60
2018-05-24T09:43:31.652Z,31.53
2018-05-24T09:44:35.763Z,31.71
2018-05-24T09:45:40.158Z,31.96
2018-05-24T09:46:44.867Z,31.43
2018-05-24T09:47:49.908Z,30.64
2018-05-24T09:48:54.040Z,30.41
2018-05-24T09:49:58.220Z,30.59
2018-05-24T09:51:02.370Z,30.75
2018-05-24T09:52:06.516Z,30.69
2018-05-24T09:53:11.009Z,31.09
2018-05-24T09:54:15.123Z,30.53
2018-05-24T09:55:19.323Z,30.59
2018-05-24T09:56:23.635Z,30.39
2018-05-24T09:57:27.828Z,30.06
2018-05-24T09:58:32.324Z,30.33
2018-05-24T09:59:36.422Z,30.36
2018-05-24T10:00:40.770Z,30.24
2018-05-24T10:01:44.938Z,29.73
2018-05-24T10:02:50.155Z,29.92
2018-05-24T10:03:54.782Z,30.00
2018-05-24T10:04:59.207Z,28.61
2018-05-24T10:06:03.424Z,28.17
2018-05-24T10:07:07.610Z,28.07
2018-05-24T10:08:11.732Z,28.45
2018-05-24T10:09:15.831Z,27.41
2018-05-24T10:10:20.229Z,27.37
2018-05-24T10:11:24.903Z,28.22
2018-05-24T10:12:29.073Z,28.74
2018-05-24T10:13:33.230Z,28.78
2018-05-24T10:14:37.435Z,29.13
2018-05-24T10:15:41.792Z,29.04
2018-05-24T10:16:46.195Z,28.59
2018-05-24T10:17:50.339Z,28.92
2018-05-24T10:18:54.435Z,28.57
2018-05-24T10:19:58.567Z,28.73
2018-05-24T10:21:02.765Z,28.72
2018-05-24T10:22:06.929Z,28.67
2018-05-24T10:23:11.072Z,28.33
2018-05-24T10:24:15.193Z,28.00
2018-05-24T10:25:19.299Z,27.32
2018-05-24T10:26:23.427Z,27.27
2018-05-24T10:27:28.001Z,27.32
2018-05-24T10:28:32.115Z,26.80
2018-05-24T10:29:36.201Z,26.46
2018-05-24T10:30:41.418Z,26.60
2018-05-24T10:31:45.919Z,26.20
2018-05-24T10:32:50.267Z,26.41
2018-05-24T10:33:54.411Z,26.65
2018-05-24T10:34:58.515Z,26.18
2018-05-24T10:36:02.718Z,26.14
2018-05-24T10:37:06.836Z,26.21
2018-05-24T10:38:10.947Z,26.57
2018-05-24T10:39:15.064Z,26.80
2018-05-24T10:40:19.197Z,26.34
2018-05-24T10:41:23.383Z,26.44
2018-05-24T10:42:28.037Z,25.61
2018-05-24T10:43:32.151Z,26.24
2018-05-24T10:44:36.259Z,26.60
2018-05-24T10:45:40.803Z,25.88
2018-05-24T10:46:44.905Z,25.53
2018-05-24T10:47:49.701Z,25.51
2018-05-24T10:48:54.566Z,25.31
2018-05-24T10:49:58.755Z,25.80
2018-05-24T10:51:03.294Z,26.17
2018-05-24T10:52:07.357Z,26.29
2018-05-24T10:53:11.521Z,26.28
2018-05-24T10:54:15.709Z,26.16
2018-05-24T10:55:19.991Z,25.91
2018-05-24T10:56:24.092Z,24.99
2018-05-24T10:57:28.612Z,25.06
2018-05-24T10:58:32.772Z,25.02
2018-05-24T10:59:37.094Z,25.22
2018-05-24T11:00:41.249Z,25.41
2018-05-24T11:01:45.411Z,25.35
2018-05-24T11:02:49.589Z,24.63
2018-05-24T11:03:54.888Z,25.17
2018-05-24T11:04:59.016Z,25.09
2018-05-24T11:06:03.171Z,24.60
2018-05-24T11:07:07.375Z,25.21
2018-05-24T11:08:11.563Z,24.98
2018-05-24T11:09:15.658Z,24.91
2018-05-24T11:10:19.785Z,24.37
2018-05-24T11:11:23.981Z,24.16
2018-05-24T11:12:28.103Z,24.26
2018-05-24T11:13:32.224Z,23.59
2018-05-24T11:14:36.478Z,23.43
2018-05-24T11:15:41.005Z,23.38
2018-05-24T11:16:45.405Z,23.85
2018-05-24T11:17:49.627Z,23.74
2018-05-24T11:18:53.723Z,23.87
2018-05-24T11:19:57.853Z,24.14
2018-05-24T11:21:01.981Z,24.42
2018-05-24T11:22:06.152Z,23.75
2018-05-24T11:23:10.585Z,23.68
2018-05-24T11:24:14.689Z,23.40
2018-05-24T11:25:18.880Z,23.72
2018-05-24T11:26:23.105Z,24.00
2018-05-24T11:27:27.213Z,23.63
2018-05-24T11:28:31.399Z,23.88
2018-05-24T11:29:35.525Z,23.54
2018-05-24T11:30:39.846Z,23.26
2018-05-24T11:31:44.078Z,22.83
2018-05-24T11:32:48.157Z,22.84
2018-05-24T11:33:52.296Z,22.09
2018-05-24T11:34:56.530Z,21.73
2018-05-24T11:36:01.518Z,20.87
2018-05-24T11:37:05.700Z,21.19
2018-05-24T11:38:10.512Z,21.23
2018-05-24T11:39:14.703Z,21.15
2018-05-24T11:40:18.873Z,20.29
2018-05-24T11:41:22.979Z,20.12
2018-05-24T11:42:27.131Z,19.89
2018-05-24T11:43:31.312Z,19.54
2018-05-24T11:44:35.481Z,20.44
2018-05-24T11:45:39.977Z,20.10
2018-05-24T11:46:44.399Z,19.39
2018-05-24T11:47:48.711Z,19.96
2018-05-24T11:48:52.842Z,19.76
2018-05-24T11:49:56.975Z,19.46
2018-05-24T11:51:01.159Z,19.26
2018-05-24T11:52:05.377Z,18.72
2018-05-24T11:53:10.331Z,19.04
2018-05-24T11:54:14.449Z,19.19
2018-05-24T11:55:18.570Z,19.56
2018-05-24T11:56:22.801Z,18.21
2018-05-24T11:57:27.007Z,17.60
2018-05-24T11:58:31.181Z,17.51
2018-05-24T11:59:35.309Z,17.56
2018-05-24T12:00:39.752Z,18.21
2018-05-24T12:01:44.021Z,18.16
2018-05-24T12:02:48.167Z,17.71
2018-05-24T12:03:52.301Z,17.59
2018-05-24T12:04:56.472Z,17.58
2018-05-24T12:06:00.823Z,17.35
2018-05-24T12:07:05.950Z,17.76
2018-05-24T12:08:09.968Z,17.91
2018-05-24T12:09:14.060Z,17.95
2018-05-24T12:10:18.191Z,17.69
2018-05-24T12:11:22.338Z,18.18
2018-05-24T12:12:26.438Z,18.36
2018-05-24T12:13:30.613Z,18.12
2018-05-24T12:14:34.723Z,17.43
2018-05-24T12:15:38.921Z,17.23
2018-05-24T12:16:43.349Z,17.64
2018-05-24T12:17:47.560Z,18.28
2018-05-24T12:18:51.643Z,18.23
2018-05-24T12:19:55.760Z,18.12
2018-05-24T12:20:59.854Z,17.87
2018-05-24T12:22:04.187Z,18.24
2018-05-24T12:23:08.289Z,18.43
2018-05-24T12:24:12.589Z,18.63
2018-05-24T12:25:16.826Z,19.02
2018-05-24T12:26:20.931Z,20.08
2018-05-24T12:27:25.091Z,19.51
2018-05-24T12:28:29.271Z,19.56
2018-05-24T12:29:33.463Z,19.93
2018-05-24T12:30:37.804Z,19.29
2018-05-24T12:31:42.237Z,19.34
2018-05-24T12:32:46.325Z,19.41
2018-05-24T12:33:50.534Z,19.60
2018-05-24T12:34:54.627Z,19.63
2018-05-24T12:35:58.762Z,18.64
2018-05-24T12:37:02.875Z,18.16
2018-05-24T12:38:07.051Z,17.36
2018-05-24T12:39:11.150Z,17.76
2018-05-24T12:40:15.223Z,17.06
2018-05-24T12:41:19.297Z,16.81
2018-05-24T12:42:23.384Z,16.51
2018-05-24T12:43:27.591Z,16.38
2018-05-24T12:44:31.703Z,17.23
2018-05-24T12:45:35.789Z,17.93
2018-05-24T12:46:39.869Z,18.58
2018-05-24T12:47:43.975Z,18.58
2018-05-24T12:48:48.162Z,18.99
2018-05-24T12:49:52.591Z,19.57
2018-05-24T12:50:56.811Z,20.05
2018-05-24T12:52:00.901Z,20.13
2018-05-24T12:53:05.039Z,20.24
2018-05-24T12:54:09.818Z,19.97
2018-05-24T12:55:14.041Z,19.67
2018-05-24T12:56:18.168Z,20.59
2018-05-24T12:57:22.347Z,19.86
2018-05-24T12:58:26.459Z,19.30
2018-05-24T12:59:30.551Z,20.71
2018-05-24T13:00:34.680Z,20.91
2018-05-24T13:01:38.769Z,21.26
2018-05-24T13:02:42.840Z,21.52
2018-05-24T13:03:46.942Z,22.00
2018-05-24T13:04:51.161Z,22.00
2018-05-24T13:05:55.441Z,21.35
2018-05-24T13:06:59.850Z,19.47
2018-05-24T13:08:04.011Z,20.20
2018-05-24T13:09:08.189Z,20.39
2018-05-24T13:10:12.285Z,20.62
2018-05-24T13:11:16.431Z,20.86
2018-05-24T13:12:20.599Z,21.43
2018-05-24T13:13:24.989Z,21.20
2018-05-24T13:14:29.053Z,21.79
2018-05-24T13:15:33.599Z,20.86
2018-05-24T13:16:37.915Z,19.28
2018-05-24T13:17:42.259Z,18.41
2018-05-24T13:18:46.771Z,18.43
2018-05-24T13:19:51.637Z,18.81
2018-05-24T13:20:55.735Z,19.02
2018-05-24T13:21:59.967Z,18.11
2018-05-24T13:23:04.197Z,18.07
2018-05-24T13:24:08.585Z,18.96
2018-05-24T13:25:12.679Z,18.87
2018-05-24T13:26:17.424Z,19.67
2018-05-24T13:27:21.499Z,19.00
2018-05-24T13:28:25.685Z,17.95
2018-05-24T13:29:29.787Z,17.97
2018-05-24T13:30:33.879Z,18.11
2018-05-24T13:31:37.995Z,18.57
2018-05-24T13:32:42.171Z,17.94
2018-05-24T13:33:46.251Z,16.71
2018-05-24T13:34:50.399Z,16.53
2018-05-24T13:35:54.491Z,16.47
2018-05-24T13:36:58.836Z,16.91
2018-05-24T13:38:03.499Z,16.75
2018-05-24T13:39:07.589Z,16.30
2018-05-24T13:40:12.315Z,16.23
2018-05-24T13:41:16.991Z,15.64
2018-05-24T13:42:21.440Z,15.51
2018-05-24T13:43:25.603Z,16.26
2018-05-24T13:44:29.709Z,17.34
2018-05-24T13:45:34.223Z,18.32
2018-05-24T13:46:38.301Z,19.02
2018-05-24T13:47:42.475Z,18.74
2018-05-24T13:48:46.908Z,18.75
2018-05-24T13:49:50.979Z,18.52
2018-05-24T13:50:55.189Z,18.07
2018-05-24T13:51:59.551Z,17.73
2018-05-24T13:53:03.665Z,18.46
2018-05-24T13:54:07.846Z,18.89
2018-05-24T13:55:13.211Z,18.73
2018-05-24T13:56:18.063Z,18.63
2018-05-24T13:57:30.913Z,17.09
2018-05-24T13:58:34.985Z,16.98
2018-05-24T13:59:39.080Z,18.03
2018-05-24T14:00:43.560Z,19.74